Time;durP1;ratioP1;P1;durP2;ratioP2;P2;SDS_P1;SDS_P2;PMS_P1;PMS_P2;Temp;Humidity;BMP_temperature;BMP_pressure;BME280_temperature;BME280_humidity;BME280_pressure;Samples;Min_cycle;Max_cycle;Signal;HPM_P1;HPM_P2
2023/03/17 00:01:08;;;;;;;1999.90;999.90;;;;;;;2.72;100.00;95156.75;5085193;28;20169;-61
2023/03/17 00:03:45;;;;;;;1999.90;999.90;;;;;;;2.69;100.00;95150.16;5085048;28;20230;-61
2023/03/17 00:06:17;;;;;;;1999.90;999.90;;;;;;;2.69;100.00;95143.97;5085693;28;20446;-61
2023/03/17 00:08:45;;;;;;;1999.90;999.90;;;;;;;2.65;100.00;95140.44;5085741;28;20196;-60
2023/03/17 00:11:15;;;;;;;1999.90;999.90;;;;;;;2.59;100.00;95131.88;5085484;28;20340;-60
2023/03/17 00:13:42;;;;;;;1999.90;999.90;;;;;;;2.59;100.00;95131.88;5084508;28;20195;-61
2023/03/17 00:16:20;;;;;;;1999.90;999.90;;;;;;;2.57;100.00;95123.41;5084749;28;20200;-61
2023/03/17 00:18:47;;;;;;;1999.90;999.90;;;;;;;2.56;100.00;95121.84;5085304;28;20173;-60
2023/03/17 00:21:13;;;;;;;1999.90;999.90;;;;;;;2.55;100.00;95125.66;5085258;28;20169;-60
2023/03/17 00:23:39;;;;;;;1999.90;999.90;;;;;;;2.54;100.00;95113.31;5085165;28;20244;-61
2023/03/17 00:26:05;;;;;;;1999.90;999.90;;;;;;;2.49;100.00;95102.06;5084696;28;20169;-61
2023/03/17 00:28:31;;;;;;;1999.90;999.90;;;;;;;2.40;100.00;95102.28;5084653;28;20220;-61
2023/03/17 00:30:59;;;;;;;1999.90;999.90;;;;;;;2.41;100.00;95092.31;5084889;28;20401;-61
2023/03/17 00:33:27;;;;;;;1999.90;999.90;;;;;;;2.41;100.00;95089.63;5084996;28;20169;-61
2023/03/17 00:35:54;;;;;;;1999.90;999.90;;;;;;;2.36;100.00;95090.69;5084960;28;20205;-61
2023/03/17 00:38:20;;;;;;;1999.90;999.90;;;;;;;2.34;100.00;95076.03;5084375;28;20179;-61
2023/03/17 00:40:46;;;;;;;1999.90;999.90;;;;;;;2.37;100.00;95070.69;5084393;28;20169;-61
2023/03/17 00:43:13;;;;;;;1999.90;999.90;;;;;;;2.42;100.00;95073.09;5084861;28;20173;-61
2023/03/17 00:45:39;;;;;;;1999.90;999.90;;;;;;;2.38;100.00;95072.25;5084354;28;20169;-61
2023/03/17 00:48:12;;;;;;;1999.90;999.90;;;;;;;2.35;100.00;95061.41;5084823;28;20240;-60
2023/03/17 00:50:38;;;;;;;1999.90;999.90;;;;;;;2.32;100.00;95049.44;5083994;28;20166;-60
2023/03/17 00:53:05;;;;;;;1999.90;999.90;;;;;;;2.36;100.00;95055.66;5084274;28;20169;-60
2023/03/17 00:55:31;;;;;;;1999.90;999.90;;;;;;;2.35;100.00;95054.13;5084085;28;20394;-60
2023/03/17 00:57:56;;;;;;;1999.90;999.90;;;;;;;2.35;100.00;95040.66;5084167;28;20169;-60
2023/03/17 01:00:28;;;;;;;1999.90;999.90;;;;;;;2.35;100.00;95040.66;5083672;28;20207;-60
2023/03/17 01:02:55;;;;;;;1999.90;999.90;;;;;;;2.33;100.00;95037.53;5084114;28;20169;-60
2023/03/17 01:05:24;;;;;;;1999.90;999.90;;;;;;;2.27;100.00;95028.22;5084104;28;20165;-60
2023/03/17 01:07:53;;;;;;;1999.90;999.90;;;;;;;2.25;100.00;95027.78;5084645;28;20179;-59
2023/03/17 01:10:22;;;;;;;1999.90;999.90;;;;;;;2.21;100.00;95021.56;5083634;28;20176;-60
2023/03/17 01:12:49;;;;;;;1999.90;999.90;;;;;;;2.20;100.00;95017.31;5084482;28;20180;-59
2023/03/17 01:15:16;;;;;;;1999.90;999.90;;;;;;;2.18;100.00;95003.41;5084441;28;20457;-59
2023/03/17 01:17:42;;;;;;;1999.90;999.90;;;;;;;2.15;100.00;95001.44;5083968;28;20173;-59
2023/03/17 01:20:15;;;;;;;1999.90;999.90;;;;;;;2.15;100.00;94989.91;5083958;28;20345;-59
2023/03/17 01:22:41;;;;;;;1999.90;999.90;;;;;;;2.05;100.00;94991.28;5084390;28;20172;-60
2023/03/17 01:25:06;;;;;;;1999.90;999.90;;;;;;;2.04;100.00;94981.63;5083926;28;20177;-61
2023/03/17 01:27:35;;;;;;;1999.90;999.90;;;;;;;2.02;100.00;94980.44;5083642;28;20296;-61
2023/03/17 01:30:03;;;;;;;1999.90;999.90;;;;;;;1.99;100.00;94968.47;5083863;28;20177;-61
2023/03/17 01:32:28;;;;;;;1999.90;999.90;;;;;;;1.97;100.00;94959.97;5083706;28;20169;-61
2023/03/17 01:34:53;;;;;;;1999.90;999.90;;;;;;;1.96;100.00;94958.41;5083839;28;20203;-61
2023/03/17 01:37:20;;;;;;;1999.90;999.90;;;;;;;1.91;100.00;94947.97;5083647;28;20203;-61
2023/03/17 01:39:46;;;;;;;1999.90;999.90;;;;;;;1.86;100.00;94942.84;5084343;28;20191;-60
2023/03/17 01:42:12;;;;;;;1999.90;999.90;;;;;;;1.79;100.00;94931.97;5083739;28;20184;-60
2023/03/17 01:44:59;;;;;;;1999.90;999.90;;;;;;;1.81;100.00;94927.03;5084215;28;20175;-60
2023/03/17 01:47:27;;;;;;;1999.90;999.90;;;;;;;1.78;100.00;94919.66;5083687;28;20169;-61
2023/03/17 01:49:53;;;;;;;1999.90;999.90;;;;;;;1.75;100.00;94915.00;5083645;28;20181;-61
2023/03/17 01:52:21;;;;;;;1999.90;999.90;;;;;;;1.72;100.00;94894.22;5084271;28;20169;-61
2023/03/17 01:54:55;;;;;;;1999.90;999.90;;;;;;;1.70;100.00;94885.69;5083526;28;20192;-60
2023/03/17 01:57:35;;;;;;;1999.90;999.90;;;;;;;1.69;100.00;94878.78;5084052;28;20202;-60
2023/03/17 02:00:08;;;;;;;1999.90;999.90;;;;;;;1.63;100.00;94869.44;5084156;28;20260;-60
2023/03/17 02:02:40;;;;;;;1999.90;999.90;;;;;;;1.55;100.00;94867.78;5083607;28;20194;-60
2023/03/17 02:05:10;;;;;;;1999.90;999.90;;;;;;;1.54;100.00;94855.47;5083483;28;20173;-60
2023/03/17 02:07:36;;;;;;;1999.90;999.90;;;;;;;1.51;100.00;94845.41;5083871;28;20392;-60
2023/03/17 02:10:04;;;;;;;1999.90;999.90;;;;;;;1.46;100.00;94845.69;5083984;28;20186;-60
2023/03/17 02:12:29;;;;;;;1999.90;999.90;;;;;;;1.46;100.00;94834.94;5083282;28;20176;-60
2023/03/17 02:14:56;;;;;;;1999.90;999.90;;;;;;;1.47;100.00;94822.28;5087380;28;20165;-60
2023/03/17 02:17:23;;;;;;;1999.90;999.90;;;;;;;1.47;100.00;94804.25;5087129;28;20193;-61
2023/03/17 02:19:50;;;;;;;1999.90;999.90;;;;;;;1.47;100.00;94796.16;5087219;28;20189;-60
2023/03/17 02:22:17;;;;;;;1999.90;999.90;;;;;;;1.48;100.00;94781.56;5087054;28;20192;-61
2023/03/17 02:24:49;;;;;;;1999.90;999.90;;;;;;;1.46;100.00;94765.00;5087681;28;20206;-61
2023/03/17 02:27:22;;;;;;;1999.90;999.90;;;;;;;1.43;100.00;94757.69;5086730;28;20228;-61
2023/03/17 02:29:49;;;;;;;1999.90;999.90;;;;;;;1.41;100.00;94741.13;5087621;28;20231;-62
2023/03/17 02:32:17;;;;;;;1999.90;999.90;;;;;;;1.38;100.00;94733.78;5087419;28;20192;-62
2023/03/17 02:34:43;;;;;;;1999.90;999.90;;;;;;;1.34;100.00;94716.06;5086593;28;20192;-62
2023/03/17 02:37:09;;;;;;;1999.90;999.90;;;;;;;1.27;100.00;94707.88;5086675;28;20221;-62
2023/03/17 02:39:35;;;;;;;1999.90;999.90;;;;;;;1.18;100.00;94700.06;5087360;28;20175;-61
2023/03/17 02:42:01;;;;;;;1999.90;999.90;;;;;;;1.20;100.00;94684.31;5086451;28;20236;-61
2023/03/17 02:44:26;;;;;;;1999.90;999.90;;;;;;;1.21;100.00;94667.09;5086846;28;20169;-61
2023/03/17 02:46:52;;;;;;;1999.90;999.90;;;;;;;1.21;100.00;94653.63;5086607;28;20175;-60
2023/03/17 02:49:18;;;;;;;1999.90;999.90;;;;;;;1.22;100.00;94640.97;5086601;28;20201;-61
2023/03/17 02:51:44;;;;;;;1999.90;999.90;;;;;;;1.23;100.00;94635.22;5087062;28;20169;-61
2023/03/17 02:54:10;;;;;;;1999.90;999.90;;;;;;;1.21;100.00;94621.38;5086975;28;20196;-61
2023/03/17 02:56:35;;;;;;;1999.90;999.90;;;;;;;1.21;100.00;94610.63;5086419;28;20203;-61
2023/03/17 02:59:01;;;;;;;1999.90;999.90;;;;;;;1.23;100.00;94602.16;5087023;28;20172;-61
2023/03/17 03:01:28;;;;;;;1999.90;999.90;;;;;;;1.23;100.00;94597.59;5086336;28;20230;-62
2023/03/17 03:03:54;;;;;;;1999.90;999.90;;;;;;;1.21;100.00;94589.13;5086422;28;20234;-61
2023/03/17 03:06:20;;;;;;;1999.90;999.90;;;;;;;1.21;100.00;94578.38;5086333;28;20358;-62
2023/03/17 03:08:45;;;;;;;1999.90;999.90;;;;;;;1.18;100.00;94562.97;5086163;28;20168;-61
2023/03/17 03:11:11;;;;;;;1999.90;999.90;;;;;;;1.22;100.00;94558.41;5086707;28;20163;-61
2023/03/17 03:13:36;;;;;;;1999.90;999.90;;;;;;;1.26;100.00;94563.81;5086689;28;20235;-62
2023/03/17 03:16:03;;;;;;;1999.90;999.90;;;;;;;1.31;100.00;94556.19;5086592;28;20200;-61
2023/03/17 03:18:28;;;;;;;1999.90;999.90;;;;;;;1.32;100.00;94551.63;5086082;28;20169;-62
2023/03/17 03:20:54;;;;;;;1999.90;999.90;;;;;;;1.36;100.00;94547.84;5086079;28;20179;-61
2023/03/17 03:23:19;;;;;;;1999.90;999.90;;;;;;;1.40;100.00;94539.81;5086086;28;20179;-62
2023/03/17 03:25:45;;;;;;;1999.90;999.90;;;;;;;1.40;100.00;94537.09;5086552;28;20240;-61
2023/03/17 03:28:10;;;;;;;1999.90;999.90;;;;;;;1.45;100.00;94540.25;5085583;28;20249;-61
2023/03/17 03:30:36;;;;;;;1999.90;999.90;;;;;;;1.44;100.00;94533.34;5085887;28;20176;-61
2023/03/17 03:33:03;;;;;;;1999.90;999.90;;;;;;;1.46;100.00;94522.97;5085851;28;20168;-61
2023/03/17 03:35:29;;;;;;;1999.90;999.90;;;;;;;1.48;100.00;94525.28;5085767;28;20165;-61
2023/03/17 03:37:55;;;;;;;1999.90;999.90;;;;;;;1.49;100.00;94519.53;5085935;28;20383;-61
2023/03/17 03:40:22;;;;;;;1999.90;999.90;;;;;;;1.51;100.00;94527.25;5085682;28;20189;-62
2023/03/17 03:42:47;;;;;;;1999.90;999.90;;;;;;;1.55;100.00;94528.84;5085601;28;20180;-61
2023/03/17 03:45:13;;;;;;;1999.90;999.90;;;;;;;1.55;100.00;94536.91;5085959;28;20239;-61
2023/03/17 03:47:38;;;;;;;1999.90;999.90;;;;;;;1.59;100.00;94535.03;5085457;28;20208;-62
2023/03/17 03:50:04;;;;;;;1999.90;999.90;;;;;;;1.59;100.00;94540.41;5085572;28;20284;-62
2023/03/17 03:52:29;;;;;;;1999.90;999.90;;;;;;;1.61;100.00;94532.00;5084931;28;20165;-61
2023/03/17 03:54:55;;;;;;;1999.90;999.90;;;;;;;1.63;100.00;94532.38;5085401;28;20263;-61
2023/03/17 03:57:20;;;;;;;1999.90;999.90;;;;;;;1.60;100.00;94531.19;5085134;28;20250;-61
2023/03/17 03:59:45;;;;;;;1999.90;999.90;;;;;;;1.60;100.00;94546.59;5085312;28;20354;-61
2023/03/17 04:02:11;;;;;;;1999.90;999.90;;;;;;;1.64;100.00;94547.41;5085197;28;20177;-61
2023/03/17 04:04:36;;;;;;;1999.90;999.90;;;;;;;1.65;100.00;94546.25;5085252;28;20172;-60
2023/03/17 04:07:02;;;;;;;1999.90;999.90;;;;;;;1.63;100.00;94545.81;5085574;28;20169;-60
2023/03/17 04:09:27;;;;;;;1999.90;999.90;;;;;;;1.65;100.00;94544.34;5085056;28;20169;-60
2023/03/17 04:11:52;;;;;;;1999.90;999.90;;;;;;;1.71;100.00;94548.25;5084938;28;20185;-60
2023/03/17 04:14:18;;;;;;;1999.90;999.90;;;;;;;1.68;100.00;94546.28;5085001;28;20180;-60
2023/03/17 04:16:43;;;;;;;1999.90;999.90;;;;;;;1.70;100.00;94546.69;5084814;28;20193;-60
2023/03/17 04:19:09;;;;;;;1999.90;999.90;;;;;;;1.77;100.00;94556.75;5084880;28;20187;-60
2023/03/17 04:21:35;;;;;;;1999.90;999.90;;;;;;;1.82;100.00;94554.50;5084708;28;20211;-61
2023/03/17 04:24:01;;;;;;;1999.90;999.90;;;;;;;1.88;100.00;94554.94;5084770;28;20168;-60
2023/03/17 04:26:26;;;;;;;1999.90;999.90;;;;;;;1.91;100.00;94560.38;5084634;28;20217;-60
2023/03/17 04:28:53;;;;;;;1999.90;999.90;;;;;;;1.93;100.00;94571.53;5085020;28;20217;-60
2023/03/17 04:31:18;;;;;;;1999.90;999.90;;;;;;;1.91;100.00;94581.91;5084471;28;20176;-60
2023/03/17 04:33:44;;;;;;;1999.90;999.90;;;;;;;1.95;100.00;94590.03;5084802;28;20238;-61
2023/03/17 04:36:18;;;;;;;1999.90;999.90;;;;;;;2.02;100.00;94607.03;5083705;28;20197;-61
2023/03/17 04:38:43;;;;;;;1999.90;999.90;;;;;;;2.05;100.00;94606.31;5084998;28;20189;-61
2023/03/17 04:41:09;;;;;;;1999.90;999.90;;;;;;;2.13;100.00;94613.31;5084606;28;20188;-61
2023/03/17 04:43:34;;;;;;;1999.90;999.90;;;;;;;2.14;100.00;94622.94;5084912;28;20188;-61
2023/03/17 04:45:59;;;;;;;1999.90;999.90;;;;;;;2.17;100.00;94632.19;5084849;28;20233;-61
2023/03/17 04:48:25;;;;;;;1999.90;999.90;;;;;;;2.13;100.00;94634.84;5084788;28;20236;-61
2023/03/17 04:50:51;;;;;;;1999.90;999.90;;;;;;;2.06;100.00;94653.63;5084698;28;20169;-61
2023/03/17 04:53:16;;;;;;;1999.90;999.90;;;;;;;2.12;100.00;94665.59;5084502;28;20169;-61
2023/03/17 04:55:42;;;;;;;1999.90;999.90;;;;;;;2.10;100.00;94667.88;5084131;28;20439;-62
2023/03/17 04:58:07;;;;;;;1999.90;999.90;;;;;;;2.11;100.00;94664.03;5084148;28;20173;-61
2023/03/17 05:00:37;;;;;;;1999.90;999.90;;;;;;;2.08;100.00;94675.53;5083977;28;20176;-61
2023/03/17 05:03:04;;;;;;;1999.90;999.90;;;;;;;2.05;100.00;94678.19;5084116;28;20451;-61
2023/03/17 05:05:29;;;;;;;1999.90;999.90;;;;;;;1.99;100.00;94685.03;5084035;28;20172;-61
2023/03/17 05:07:54;;;;;;;1999.90;999.90;;;;;;;1.92;100.00;94687.66;5084563;28;20169;-61
2023/03/17 05:10:20;;;;;;;1999.90;999.90;;;;;;;1.94;100.00;94688.84;5084287;28;20178;-61
2023/03/17 05:12:45;;;;;;;1999.90;999.90;;;;;;;1.92;100.00;94685.72;5084418;28;20196;-61
2023/03/17 05:15:11;;;;;;;1999.90;999.90;;;;;;;1.85;100.00;94691.03;5084002;28;20165;-61
2023/03/17 05:17:36;;;;;;;1999.90;999.90;;;;;;;1.84;100.00;94696.78;5083972;28;20201;-61
2023/03/17 05:20:03;;;;;;;1999.90;999.90;;;;;;;1.86;100.00;94694.50;5083917;28;20243;-61
2023/03/17 05:22:28;;;;;;;1999.90;999.90;;;;;;;1.83;100.00;94696.00;5083795;28;20170;-61
2023/03/17 05:24:53;;;;;;;1999.90;999.90;;;;;;;1.83;100.00;94693.31;5084671;28;20241;-61
2023/03/17 05:27:20;;;;;;;1999.90;999.90;;;;;;;1.84;100.00;94697.56;5083857;28;20255;-61
2023/03/17 05:29:46;;;;;;;1999.90;999.90;;;;;;;1.85;100.00;94699.09;5084300;28;20267;-62
2023/03/17 05:32:12;;;;;;;1999.90;999.90;;;;;;;1.81;100.00;94694.81;5084218;28;20191;-62
2023/03/17 05:34:37;;;;;;;1999.90;999.90;;;;;;;1.86;100.00;94689.88;5084569;28;20240;-61
2023/03/17 05:37:03;;;;;;;1999.90;999.90;;;;;;;1.92;100.00;94677.66;5083615;28;20283;-62
2023/03/17 05:39:28;;;;;;;1999.90;999.90;;;;;;;2.02;100.00;94693.19;5083644;28;20165;-61
2023/03/17 05:41:53;;;;;;;1999.90;999.90;;;;;;;2.06;100.00;94687.81;5084129;28;20188;-61
2023/03/17 05:44:19;;;;;;;1999.90;999.90;;;;;;;2.17;100.00;94697.59;5083560;28;20232;-61
2023/03/17 05:46:45;;;;;;;1999.90;999.90;;;;;;;2.46;100.00;94694.06;5085099;28;20196;-60
2023/03/17 05:49:11;;;;;;;1999.90;999.90;;;;;;;2.53;100.00;94702.25;5087712;28;20180;-61
2023/03/17 05:51:36;;;;;;;1999.90;999.90;;;;;;;2.88;100.00;94705.28;5087596;28;20196;-60
2023/03/17 05:54:02;;;;;;;1999.90;999.90;;;;;;;3.21;100.00;94726.75;5087627;28;20416;-61
2023/03/17 05:56:32;;;;;;;1999.90;999.90;;;;;;;3.51;100.00;94754.38;5087998;28;20261;-63
2023/03/17 05:58:59;;;;;;;1999.90;999.90;;;;;;;3.72;100.00;94791.56;5088070;28;20165;-60
2023/03/17 06:01:26;;;;;;;1999.90;999.90;;;;;;;4.03;100.00;94819.94;5087799;28;20161;-62
2023/03/17 06:03:51;;;;;;;1999.90;999.90;;;;;;;4.38;100.00;94837.16;5087441;28;20176;-62
2023/03/17 06:06:17;;;;;;;1999.90;999.90;;;;;;;4.71;100.00;94869.41;5087837;28;20163;-61
2023/03/17 06:08:43;;;;;;;1999.90;999.90;;;;;;;4.90;100.00;94888.03;5087327;28;20189;-62
2023/03/17 06:11:08;;;;;;;1999.90;999.90;;;;;;;5.20;100.00;94904.00;5086945;28;20229;-62
2023/03/17 06:13:34;;;;;;;1999.90;999.90;;;;;;;5.76;100.00;94936.72;5087776;28;20181;-61
2023/03/17 06:15:59;;;;;;;1999.90;999.90;;;;;;;6.36;100.00;94956.56;5087194;28;20207;-63
2023/03/17 06:18:24;;;;;;;1999.90;999.90;;;;;;;7.12;100.00;94965.81;5087560;28;20172;-63
2023/03/17 06:20:50;;;;;;;1999.90;999.90;;;;;;;7.46;100.00;94996.75;5087564;28;20199;-63
2023/03/17 06:23:16;;;;;;;1999.90;999.90;;;;;;;7.55;100.00;94997.13;5087362;28;20188;-63
2023/03/17 06:25:41;;;;;;;1999.90;999.90;;;;;;;7.93;100.00;95001.63;5086792;28;20179;-62
2023/03/17 06:28:07;;;;;;;1999.90;999.90;;;;;;;7.83;100.00;95002.44;5086792;28;20216;-63
2023/03/17 06:30:34;;;;;;;1999.90;999.90;;;;;;;7.28;100.00;95009.59;5086773;28;20170;-63
2023/03/17 06:33:00;;;;;;;1999.90;999.90;;;;;;;6.43;100.00;95013.50;5087559;28;20177;-63
2023/03/17 06:35:26;;;;;;;1999.90;999.90;;;;;;;6.10;100.00;95005.72;5086634;28;20253;-64
2023/03/17 06:37:51;;;;;;;1999.90;999.90;;;;;;;5.96;100.00;94997.53;5086700;28;20176;-63
2023/03/17 06:40:17;;;;;;;1999.90;999.90;;;;;;;5.75;100.00;95000.13;5086845;28;20244;-62
2023/03/17 06:42:42;;;;;;;1999.90;999.90;;;;;;;5.68;100.00;95000.91;5087418;28;20173;-63
2023/03/17 06:45:09;;;;;;;1999.90;999.90;;;;;;;5.60;100.00;95009.38;5086570;28;20205;-63
2023/03/17 06:47:36;;;;;;;1999.90;999.90;;;;;;;5.82;100.00;95008.31;5086495;28;20171;-63
2023/03/17 06:50:02;;;;;;;1999.90;999.90;;;;;;;6.16;100.00;95001.47;5086499;28;20189;-63
2023/03/17 06:52:27;;;;;;;1999.90;999.90;;;;;;;6.76;100.00;95007.72;5086495;28;20167;-64
2023/03/17 06:54:53;;;;;;;1999.90;999.90;;;;;;;7.56;100.00;95014.97;5086418;28;20239;-64
2023/03/17 06:57:18;;;;;;;1999.90;999.90;;;;;;;8.43;100.00;95002.94;5086824;28;20260;-64
2023/03/17 06:59:44;;;;;;;1999.90;999.90;;;;;;;8.97;100.00;95004.88;5085554;28;20201;-64
2023/03/17 07:02:10;;;;;;;1999.90;999.90;;;;;;;9.38;100.00;95008.38;5086212;28;20171;-62
2023/03/17 07:04:37;;;;;;;1999.90;999.90;;;;;;;10.13;100.00;95009.84;5086733;28;20167;-62
2023/03/17 07:07:06;;;;;;;1999.90;999.90;;;;;;;10.29;100.00;95016.66;5086260;28;20469;-63
2023/03/17 07:09:33;;;;;;;1999.90;999.90;;;;;;;11.41;100.00;95020.41;5086113;28;20172;-65
2023/03/17 07:12:04;;;;;;;1999.90;999.90;;;;;;;11.81;100.00;95022.81;5086569;28;20179;-64
2023/03/17 07:14:36;;;;;;;1999.90;999.90;;;;;;;12.28;100.00;95018.72;5086444;28;20211;-63
2023/03/17 07:17:04;;;;;;;1999.90;999.90;;;;;;;12.10;100.00;95029.25;5085964;28;20224;-67
2023/03/17 07:19:30;;;;;;;1999.90;999.90;;;;;;;12.13;100.00;95033.91;5085950;28;20176;-66
2023/03/17 07:21:55;;;;;;;1999.90;999.90;;;;;;;11.99;100.00;95025.97;5086308;28;20173;-64
2023/03/17 07:24:21;;;;;;;1999.90;999.90;;;;;;;12.12;100.00;95026.09;5086126;28;20206;-65
2023/03/17 07:26:47;;;;;;;1999.90;999.90;;;;;;;12.46;100.00;95023.84;5085741;28;20169;-67
2023/03/17 07:29:13;;;;;;;1999.90;999.90;;;;;;;12.56;100.00;95033.78;5085770;28;20463;-67
2023/03/17 07:31:38;;;;;;;1999.90;999.90;;;;;;;12.48;100.00;95026.91;5085359;28;20192;-62
2023/03/17 07:34:05;;;;;;;1999.90;999.90;;;;;;;12.66;100.00;95019.09;5085785;28;20180;-69
2023/03/17 07:36:33;;;;;;;1999.90;999.90;;;;;;;13.67;98.10;95015.09;5085995;28;20201;-62
2023/03/17 07:39:00;;;;;;;1999.90;999.90;;;;;;;14.52;89.87;95017.03;5085607;28;20456;-61
2023/03/17 07:41:26;;;;;;;1999.90;999.90;;;;;;;15.21;82.11;95018.81;5085533;28;20176;-69
2023/03/17 07:43:51;;;;;;;1999.90;999.90;;;;;;;15.45;77.98;95026.28;5085909;28;20181;-66
2023/03/17 07:46:17;;;;;;;1999.90;999.90;;;;;;;16.27;69.61;95017.53;5085947;28;20166;-65
2023/03/17 07:48:43;;;;;;;1999.90;999.90;;;;;;;16.19;64.16;95030.03;5085150;28;20174;-65
2023/03/17 07:51:16;;;;;;;1999.90;999.90;;;;;;;17.10;60.36;95022.31;5085777;28;20170;-66
2023/03/17 07:53:42;;;;;;;1999.90;999.90;;;;;;;17.46;56.68;95012.19;5085489;28;20189;-65
2023/03/17 07:56:08;;;;;;;1999.90;999.90;;;;;;;18.02;54.59;95026.38;5085167;28;20212;-65
2023/03/17 07:58:34;;;;;;;1999.90;999.90;;;;;;;18.26;54.32;95029.31;5085176;28;20173;-66
2023/03/17 08:01:00;;;;;;;1999.90;999.90;;;;;;;18.26;52.91;95035.63;5085139;28;20192;-65
2023/03/17 08:03:26;;;;;;;1999.90;999.90;;;;;;;18.23;52.12;95027.47;5085604;28;20169;-65
2023/03/17 08:05:54;;;;;;;1999.90;999.90;;;;;;;18.93;49.19;95024.28;5085637;28;20204;-65
2023/03/17 08:08:21;;;;;;;1999.90;999.90;;;;;;;19.23;48.27;95028.81;5085012;28;20210;-65
2023/03/17 08:10:46;;;;;;;1999.90;999.90;;;;;;;18.52;47.77;95036.84;5084004;28;20169;-64
2023/03/17 08:13:12;;;;;;;1999.90;999.90;;;;;;;18.71;48.73;95021.75;5084921;28;20496;-64
2023/03/17 08:15:38;;;;;;;1999.90;999.90;;;;;;;18.72;49.42;95022.53;5084584;28;20244;-64
2023/03/17 08:18:03;;;;;;;1999.90;999.90;;;;;;;18.90;47.68;95025.22;5084870;28;20180;-64
2023/03/17 08:20:29;;;;;;;1999.90;999.90;;;;;;;19.12;45.99;95028.53;5085352;28;20180;-64
2023/03/17 08:22:55;;;;;;;1999.90;999.90;;;;;;;18.90;46.90;95044.59;5085460;28;20181;-63
2023/03/17 08:25:21;;;;;;;1999.90;999.90;;;;;;;19.63;47.18;95040.34;5085160;28;20173;-62
2023/03/17 08:27:47;;;;;;;1999.90;999.90;;;;;;;20.14;45.12;95035.41;5084522;28;20217;-62
2023/03/17 08:30:15;;;;;;;1999.90;999.90;;;;;;;19.57;45.13;95036.69;5085084;28;20165;-63
2023/03/17 08:32:40;;;;;;;1999.90;999.90;;;;;;;19.94;46.82;95032.47;5085000;28;20219;-63
2023/03/17 08:35:06;;;;;;;1999.90;999.90;;;;;;;20.20;45.10;95032.75;5084278;28;20400;-63
2023/03/17 08:37:32;;;;;;;1999.90;999.90;;;;;;;20.64;43.34;95028.81;5084432;28;20392;-63
2023/03/17 08:39:57;;;;;;;1999.90;999.90;;;;;;;21.27;42.47;95028.16;5085131;28;20175;-64
2023/03/17 08:42:23;;;;;;;1999.90;999.90;;;;;;;21.06;41.23;95023.03;5084873;28;20204;-63
2023/03/17 08:44:48;;;;;;;1999.90;999.90;;;;;;;20.93;40.67;95023.31;5084555;28;20165;-63
2023/03/17 08:47:14;;;;;;;1999.90;999.90;;;;;;;20.90;43.01;95013.13;5084039;28;20199;-63
2023/03/17 08:49:39;;;;;;;1999.90;999.90;;;;;;;20.88;43.07;95015.63;5084215;28;20203;-63
2023/03/17 08:52:05;;;;;;;1999.90;999.90;;;;;;;20.68;42.29;95021.06;5084717;28;20166;-64
2023/03/17 08:54:31;;;;;;;1999.90;999.90;;;;;;;22.24;39.51;95023.75;5084318;28;20212;-64
2023/03/17 08:56:57;;;;;;;1999.90;999.90;;;;;;;21.85;38.58;95025.28;5083948;28;20185;-63
2023/03/17 08:59:22;;;;;;;1999.90;999.90;;;;;;;20.68;41.81;95021.06;5083935;28;20173;-63
2023/03/17 09:01:48;;;;;;;1999.90;999.90;;;;;;;19.74;40.81;95021.19;5084655;28;20244;-63
2023/03/17 09:04:14;;;;;;;1999.90;999.90;;;;;;;20.34;41.70;95021.72;5083940;28;20173;-64
2023/03/17 09:06:40;;;;;;;1999.90;999.90;;;;;;;20.18;40.73;95013.06;5084004;28;20200;-66
2023/03/17 09:09:06;;;;;;;1999.90;999.90;;;;;;;20.84;39.23;95022.63;5083902;28;20527;-65
2023/03/17 09:11:31;;;;;;;1999.90;999.90;;;;;;;20.44;39.65;95031.50;5083841;28;20165;-61
2023/03/17 09:13:57;;;;;;;1999.90;999.90;;;;;;;20.62;40.54;95023.00;5084397;28;20165;-65
2023/03/17 09:16:23;;;;;;;1999.90;999.90;;;;;;;20.85;41.76;95027.69;5083921;28;20161;-62
2023/03/17 09:18:49;;;;;;;1999.90;999.90;;;;;;;21.46;40.40;95023.91;5084432;28;20165;-61
2023/03/17 09:21:16;;;;;;;1999.90;999.90;;;;;;;21.45;40.21;95019.59;5084069;28;20267;-62
2023/03/17 09:23:41;;;;;;;1999.90;999.90;;;;;;;21.50;39.21;95018.94;5083339;28;20175;-63
2023/03/17 09:26:07;;;;;;;1999.90;999.90;;;;;;;21.37;38.37;95018.47;5084060;28;20201;-63
2023/03/17 09:28:33;;;;;;;1999.90;999.90;;;;;;;21.34;39.12;95010.34;5083643;28;20216;-67
2023/03/17 09:31:00;;;;;;;1999.90;999.90;;;;;;;22.13;39.16;94995.81;5084059;28;20169;-65
2023/03/17 09:33:26;;;;;;;1999.90;999.90;;;;;;;21.08;38.22;94999.06;5084340;28;20161;-65
2023/03/17 09:35:51;;;;;;;1999.90;999.90;;;;;;;20.96;39.77;95011.25;5083686;28;20223;-66
2023/03/17 09:38:17;;;;;;;1999.90;999.90;;;;;;;21.07;39.62;95005.88;5083586;28;20240;-65
2023/03/17 09:40:48;;;;;;;1999.90;999.90;;;;;;;20.04;42.32;95002.66;5083585;28;20169;-65
2023/03/17 09:43:16;;;;;;;1999.90;999.90;;;;;;;20.33;42.84;94997.22;5083573;28;20244;-65
2023/03/17 09:45:43;;;;;;;1999.90;999.90;;;;;;;20.39;41.99;94996.06;5083360;28;20224;-62
2023/03/17 09:48:23;;;;;;;1999.90;999.90;;;;;;;20.26;42.52;94998.34;5083461;28;20165;-61
2023/03/17 09:51:04;;;;;;;1999.90;999.90;;;;;;;19.64;41.16;94997.56;5083887;28;20243;-63
2023/03/17 09:53:34;;;;;;;1999.90;999.90;;;;;;;18.64;44.00;94983.34;5083869;28;20164;-63
2023/03/17 09:56:29;;;;;;;1999.90;999.90;;;;;;;19.46;45.05;94981.03;5083830;28;20179;-67
2023/03/17 09:59:17;;;;;;;1999.90;999.90;;;;;;;20.07;40.76;94985.06;5081905;28;20584;-62
2023/03/17 10:01:42;;;;;;;1999.90;999.90;;;;;;;19.54;40.82;94984.97;5081970;28;20389;-62
2023/03/17 10:04:10;;;;;;;1999.90;999.90;;;;;;;19.96;41.09;94976.53;5083843;28;20165;-61
2023/03/17 10:06:45;;;;;;;1999.90;999.90;;;;;;;19.81;41.56;94982.03;5083728;28;20256;-62
2023/03/17 10:09:42;;;;;;;1999.90;999.90;;;;;;;19.97;40.29;94978.84;5082489;28;20410;-61
2023/03/17 10:12:11;;;;;;;1999.90;999.90;;;;;;;19.52;41.49;94976.38;5083598;28;20210;-61
2023/03/17 10:14:55;;;;;;;1999.90;999.90;;;;;;;20.22;39.52;94978.38;5083698;28;20358;-61
2023/03/17 10:17:24;;;;;;;1999.90;999.90;;;;;;;19.58;41.06;94988.34;5083815;28;20252;-61
2023/03/17 10:19:56;;;;;;;1999.90;999.90;;;;;;;20.01;39.70;94981.41;5083880;28;20188;-62
2023/03/17 10:22:29;;;;;;;1999.90;999.90;;;;;;;20.14;40.38;94985.50;5083731;28;20169;-62
2023/03/17 10:25:01;;;;;;;1999.90;999.90;;;;;;;20.46;38.95;94984.59;5083615;28;20202;-66
2023/03/17 10:27:33;;;;;;;1999.90;999.90;;;;;;;21.40;37.53;94978.63;5083150;28;20221;-65
2023/03/17 10:29:58;;;;;;;1999.90;999.90;;;;;;;20.75;38.88;94962.41;5083420;28;20168;-64
2023/03/17 10:32:25;;;;;;;1999.90;999.90;;;;;;;20.90;38.04;94952.03;5083195;28;20366;-66
2023/03/17 10:34:51;;;;;;;1999.90;999.90;;;;;;;21.01;38.35;94951.50;5085308;28;20184;-63
2023/03/17 10:37:19;;;;;;;1999.90;999.90;;;;;;;20.32;34.86;94968.69;5087298;28;20172;-62
2023/03/17 10:39:51;;;;;;;1999.90;999.90;;;;;;;19.84;35.20;94969.25;5085264;28;20409;-67
2023/03/17 10:42:26;;;;;;;1999.90;999.90;;;;;;;19.66;36.88;94967.34;5087171;28;20422;-63
2023/03/17 10:45:02;;;;;;;1999.90;999.90;;;;;;;19.80;37.21;94963.88;5086517;28;20165;-68
2023/03/17 10:47:36;;;;;;;1999.90;999.90;;;;;;;20.42;36.05;94969.38;5086947;28;20415;-70
2023/03/17 10:50:39;;;;;;;1999.90;999.90;;;;;;;19.58;38.49;94968.94;5087096;28;20169;-64
2023/03/17 10:53:19;;;;;;;1999.90;999.90;;;;;;;19.99;38.14;94970.06;5086444;28;20165;-63
2023/03/17 10:55:51;;;;;;;1999.90;999.90;;;;;;;19.59;39.11;94962.16;5086562;28;20172;-65